sensor_id;sensor_type;location;lat;lon;timestamp;temperature;humidity
30069;DHT22;16894;49.456;10.644;2022-10-16T00:02:09;15.00;99.90
30069;DHT22;16894;49.456;10.644;2022-10-16T00:04:35;15.00;99.90
30069;DHT22;16894;49.456;10.644;2022-10-16T00:07:00;14.90;99.90
30069;DHT22;16894;49.456;10.644;2022-10-16T00:09:27;14.80;99.90
30069;DHT22;16894;49.456;10.644;2022-10-16T00:11:52;14.80;99.90
30069;DHT22;16894;49.456;10.644;2022-10-16T00:14:18;14.80;99.90
30069;DHT22;16894;49.456;10.644;2022-10-16T00:16:43;14.80;99.90
30069;DHT22;16894;49.456;10.644;2022-10-16T00:19:10;14.80;99.90
30069;DHT22;16894;49.456;10.644;2022-10-16T00:21:37;14.70;99.90
30069;DHT22;16894;49.456;10.644;2022-10-16T00:24:05;14.70;99.90
30069;DHT22;16894;49.456;10.644;2022-10-16T00:26:33;14.80;99.90
30069;DHT22;16894;49.456;10.644;2022-10-16T00:29:00;14.80;99.90
30069;DHT22;16894;49.456;10.644;2022-10-16T00:31:26;14.80;99.90
30069;DHT22;16894;49.456;10.644;2022-10-16T00:33:52;14.80;99.90
30069;DHT22;16894;49.456;10.644;2022-10-16T00:36:21;14.80;99.90
30069;DHT22;16894;49.456;10.644;2022-10-16T00:38:47;14.80;99.90
30069;DHT22;16894;49.456;10.644;2022-10-16T00:41:15;14.80;99.90
30069;DHT22;16894;49.456;10.644;2022-10-16T00:46:23;14.80;99.90
30069;DHT22;16894;49.456;10.644;2022-10-16T00:49:08;14.70;99.90
30069;DHT22;16894;49.456;10.644;2022-10-16T00:51:37;14.70;99.90
30069;DHT22;16894;49.456;10.644;2022-10-16T00:54:08;14.70;99.90
30069;DHT22;16894;49.456;10.644;2022-10-16T00:56:34;14.70;99.90
30069;DHT22;16894;49.456;10.644;2022-10-16T00:59:04;14.70;99.90
30069;DHT22;16894;49.456;10.644;2022-10-16T01:01:30;14.70;99.90
30069;DHT22;16894;49.456;10.644;2022-10-16T01:03:56;14.70;99.90
30069;DHT22;16894;49.456;10.644;2022-10-16T01:06:24;14.70;99.90
30069;DHT22;16894;49.456;10.644;2022-10-16T01:09:35;14.70;99.90
30069;DHT22;16894;49.456;10.644;2022-10-16T01:17:12;14.60;99.90
30069;DHT22;16894;49.456;10.644;2022-10-16T01:19:54;14.70;99.90
30069;DHT22;16894;49.456;10.644;2022-10-16T01:22:25;14.70;99.90
30069;DHT22;16894;49.456;10.644;2022-10-16T01:24:54;14.80;99.90
30069;DHT22;16894;49.456;10.644;2022-10-16T01:27:40;14.80;99.90
30069;DHT22;16894;49.456;10.644;2022-10-16T01:30:17;14.80;99.90
30069;DHT22;16894;49.456;10.644;2022-10-16T01:32:49;14.80;99.90
30069;DHT22;16894;49.456;10.644;2022-10-16T01:38:37;14.90;99.90
30069;DHT22;16894;49.456;10.644;2022-10-16T01:41:17;14.90;99.90
30069;DHT22;16894;49.456;10.644;2022-10-16T01:43:55;14.90;99.90
30069;DHT22;16894;49.456;10.644;2022-10-16T01:46:23;14.90;99.90
30069;DHT22;16894;49.456;10.644;2022-10-16T01:48:50;14.90;99.90
30069;DHT22;16894;49.456;10.644;2022-10-16T01:51:17;14.90;99.90
30069;DHT22;16894;49.456;10.644;2022-10-16T01:53:48;15.00;99.90
30069;DHT22;16894;49.456;10.644;2022-10-16T01:56:15;15.00;99.90
30069;DHT22;16894;49.456;10.644;2022-10-16T01:58:47;15.00;99.90
30069;DHT22;16894;49.456;10.644;2022-10-16T02:01:16;15.00;99.90
30069;DHT22;16894;49.456;10.644;2022-10-16T02:03:44;15.00;99.90
30069;DHT22;16894;49.456;10.644;2022-10-16T02:06:12;15.00;99.90
30069;DHT22;16894;49.456;10.644;2022-10-16T02:08:38;15.00;99.90
30069;DHT22;16894;49.456;10.644;2022-10-16T02:11:05;15.10;99.90
30069;DHT22;16894;49.456;10.644;2022-10-16T02:13:51;15.10;99.90
30069;DHT22;16894;49.456;10.644;2022-10-16T02:16:18;15.10;99.90
30069;DHT22;16894;49.456;10.644;2022-10-16T02:18:44;15.10;99.90
30069;DHT22;16894;49.456;10.644;2022-10-16T02:21:21;15.10;99.90
30069;DHT22;16894;49.456;10.644;2022-10-16T02:24:13;15.10;99.90
30069;DHT22;16894;49.456;10.644;2022-10-16T02:26:55;15.10;99.90
30069;DHT22;16894;49.456;10.644;2022-10-16T02:29:25;15.10;99.90
30069;DHT22;16894;49.456;10.644;2022-10-16T02:31:55;15.00;99.90
30069;DHT22;16894;49.456;10.644;2022-10-16T02:34:24;15.10;99.90
30069;DHT22;16894;49.456;10.644;2022-10-16T02:36:51;15.00;99.90
30069;DHT22;16894;49.456;10.644;2022-10-16T02:39:18;15.00;99.90
30069;DHT22;16894;49.456;10.644;2022-10-16T02:41:44;15.10;99.90
30069;DHT22;16894;49.456;10.644;2022-10-16T02:44:10;15.00;99.90
30069;DHT22;16894;49.456;10.644;2022-10-16T02:46:36;15.00;99.90
30069;DHT22;16894;49.456;10.644;2022-10-16T02:49:01;15.00;99.90
30069;DHT22;16894;49.456;10.644;2022-10-16T02:51:27;15.00;99.90
30069;DHT22;16894;49.456;10.644;2022-10-16T02:53:52;15.00;99.90
30069;DHT22;16894;49.456;10.644;2022-10-16T02:56:18;15.00;99.90
30069;DHT22;16894;49.456;10.644;2022-10-16T02:58:44;15.00;99.90
30069;DHT22;16894;49.456;10.644;2022-10-16T03:01:09;15.00;99.90
30069;DHT22;16894;49.456;10.644;2022-10-16T03:03:35;14.90;99.90
30069;DHT22;16894;49.456;10.644;2022-10-16T03:06:01;14.80;99.90
30069;DHT22;16894;49.456;10.644;2022-10-16T03:08:27;14.80;99.90
30069;DHT22;16894;49.456;10.644;2022-10-16T03:10:52;14.80;99.90
30069;DHT22;16894;49.456;10.644;2022-10-16T03:13:18;14.70;99.90
30069;DHT22;16894;49.456;10.644;2022-10-16T03:15:45;14.70;99.90
30069;DHT22;16894;49.456;10.644;2022-10-16T03:18:11;14.70;99.90
30069;DHT22;16894;49.456;10.644;2022-10-16T03:20:37;14.70;99.90
30069;DHT22;16894;49.456;10.644;2022-10-16T03:23:03;14.70;99.90
30069;DHT22;16894;49.456;10.644;2022-10-16T03:25:28;14.60;99.90
30069;DHT22;16894;49.456;10.644;2022-10-16T03:27:54;14.60;99.90
30069;DHT22;16894;49.456;10.644;2022-10-16T03:30:19;14.60;99.90
30069;DHT22;16894;49.456;10.644;2022-10-16T03:32:46;14.60;99.90
30069;DHT22;16894;49.456;10.644;2022-10-16T03:35:12;14.60;99.90
30069;DHT22;16894;49.456;10.644;2022-10-16T03:37:37;14.60;99.90
30069;DHT22;16894;49.456;10.644;2022-10-16T03:40:04;14.60;99.90
30069;DHT22;16894;49.456;10.644;2022-10-16T03:42:30;14.60;99.90
30069;DHT22;16894;49.456;10.644;2022-10-16T03:44:55;14.70;99.90
30069;DHT22;16894;49.456;10.644;2022-10-16T03:47:21;14.70;99.90
30069;DHT22;16894;49.456;10.644;2022-10-16T03:49:49;14.80;99.90
30069;DHT22;16894;49.456;10.644;2022-10-16T03:52:14;14.70;99.90
30069;DHT22;16894;49.456;10.644;2022-10-16T03:54:40;14.70;99.90
30069;DHT22;16894;49.456;10.644;2022-10-16T03:57:05;14.80;99.90
30069;DHT22;16894;49.456;10.644;2022-10-16T03:59:31;14.80;99.90
30069;DHT22;16894;49.456;10.644;2022-10-16T04:01:57;14.80;99.90
30069;DHT22;16894;49.456;10.644;2022-10-16T04:04:22;14.80;99.90
30069;DHT22;16894;49.456;10.644;2022-10-16T04:06:48;14.80;99.90
30069;DHT22;16894;49.456;10.644;2022-10-16T04:09:13;14.90;99.90
30069;DHT22;16894;49.456;10.644;2022-10-16T04:11:39;14.80;99.90
30069;DHT22;16894;49.456;10.644;2022-10-16T04:14:05;14.80;99.90
30069;DHT22;16894;49.456;10.644;2022-10-16T04:16:30;14.80;99.90
30069;DHT22;16894;49.456;10.644;2022-10-16T04:18:56;14.80;99.90
30069;DHT22;16894;49.456;10.644;2022-10-16T04:21:21;14.90;99.90
30069;DHT22;16894;49.456;10.644;2022-10-16T04:23:48;14.90;99.90
30069;DHT22;16894;49.456;10.644;2022-10-16T04:26:13;14.80;99.90
30069;DHT22;16894;49.456;10.644;2022-10-16T04:28:39;14.80;99.90
30069;DHT22;16894;49.456;10.644;2022-10-16T04:31:06;14.80;99.90
30069;DHT22;16894;49.456;10.644;2022-10-16T04:33:33;14.90;99.90
30069;DHT22;16894;49.456;10.644;2022-10-16T04:36:00;14.80;99.90
30069;DHT22;16894;49.456;10.644;2022-10-16T04:38:26;14.80;99.90
30069;DHT22;16894;49.456;10.644;2022-10-16T04:40:52;14.80;99.90
30069;DHT22;16894;49.456;10.644;2022-10-16T04:43:18;14.80;99.90
30069;DHT22;16894;49.456;10.644;2022-10-16T04:45:44;14.80;99.90
30069;DHT22;16894;49.456;10.644;2022-10-16T04:48:09;14.80;99.90
30069;DHT22;16894;49.456;10.644;2022-10-16T04:50:35;14.80;99.90
30069;DHT22;16894;49.456;10.644;2022-10-16T04:53:01;14.70;99.90
30069;DHT22;16894;49.456;10.644;2022-10-16T04:55:26;14.70;99.90
30069;DHT22;16894;49.456;10.644;2022-10-16T04:57:52;14.60;99.90
30069;DHT22;16894;49.456;10.644;2022-10-16T05:00:18;14.60;99.90
30069;DHT22;16894;49.456;10.644;2022-10-16T05:02:43;14.50;99.90
30069;DHT22;16894;49.456;10.644;2022-10-16T05:05:09;14.50;99.90
30069;DHT22;16894;49.456;10.644;2022-10-16T05:07:35;14.50;99.90
30069;DHT22;16894;49.456;10.644;2022-10-16T05:10:00;14.50;99.90
30069;DHT22;16894;49.456;10.644;2022-10-16T05:12:26;14.50;99.90
30069;DHT22;16894;49.456;10.644;2022-10-16T05:14:51;14.50;99.90
30069;DHT22;16894;49.456;10.644;2022-10-16T05:17:17;14.50;99.90
30069;DHT22;16894;49.456;10.644;2022-10-16T05:19:43;14.50;99.90
30069;DHT22;16894;49.456;10.644;2022-10-16T05:22:08;14.60;99.90
30069;DHT22;16894;49.456;10.644;2022-10-16T05:24:34;14.50;99.90
30069;DHT22;16894;49.456;10.644;2022-10-16T05:27:00;14.50;99.90
30069;DHT22;16894;49.456;10.644;2022-10-16T05:29:25;14.40;99.90
30069;DHT22;16894;49.456;10.644;2022-10-16T05:31:52;14.40;99.90
30069;DHT22;16894;49.456;10.644;2022-10-16T05:34:18;14.40;99.90
30069;DHT22;16894;49.456;10.644;2022-10-16T05:36:44;14.30;99.90
30069;DHT22;16894;49.456;10.644;2022-10-16T05:39:11;14.30;99.90
30069;DHT22;16894;49.456;10.644;2022-10-16T05:41:36;14.30;99.90
30069;DHT22;16894;49.456;10.644;2022-10-16T05:44:05;14.30;99.90
30069;DHT22;16894;49.456;10.644;2022-10-16T05:46:32;14.40;99.90
30069;DHT22;16894;49.456;10.644;2022-10-16T05:48:57;14.40;99.90
30069;DHT22;16894;49.456;10.644;2022-10-16T05:51:23;14.40;99.90
30069;DHT22;16894;49.456;10.644;2022-10-16T05:53:49;14.40;99.90
30069;DHT22;16894;49.456;10.644;2022-10-16T05:56:14;14.40;99.90
30069;DHT22;16894;49.456;10.644;2022-10-16T05:58:40;14.40;99.90
30069;DHT22;16894;49.456;10.644;2022-10-16T06:01:13;14.50;99.90
30069;DHT22;16894;49.456;10.644;2022-10-16T06:03:40;14.50;99.90
30069;DHT22;16894;49.456;10.644;2022-10-16T06:06:13;14.50;99.90
30069;DHT22;16894;49.456;10.644;2022-10-16T06:08:40;14.50;99.90
30069;DHT22;16894;49.456;10.644;2022-10-16T06:11:09;14.50;99.90
30069;DHT22;16894;49.456;10.644;2022-10-16T06:13:35;14.50;99.90
30069;DHT22;16894;49.456;10.644;2022-10-16T06:16:01;14.60;99.90
30069;DHT22;16894;49.456;10.644;2022-10-16T06:18:28;14.60;99.90
30069;DHT22;16894;49.456;10.644;2022-10-16T06:20:54;14.60;99.90
30069;DHT22;16894;49.456;10.644;2022-10-16T06:23:20;14.60;99.90
30069;DHT22;16894;49.456;10.644;2022-10-16T06:25:46;14.60;99.90
30069;DHT22;16894;49.456;10.644;2022-10-16T06:28:13;14.60;99.90
30069;DHT22;16894;49.456;10.644;2022-10-16T06:30:39;14.60;99.90
30069;DHT22;16894;49.456;10.644;2022-10-16T06:33:05;14.60;99.90
30069;DHT22;16894;49.456;10.644;2022-10-16T06:35:30;14.60;99.90
30069;DHT22;16894;49.456;10.644;2022-10-16T06:37:57;14.60;99.90
30069;DHT22;16894;49.456;10.644;2022-10-16T06:40:23;14.60;99.90
30069;DHT22;16894;49.456;10.644;2022-10-16T06:42:49;14.50;99.90
30069;DHT22;16894;49.456;10.644;2022-10-16T06:45:14;14.60;99.90
30069;DHT22;16894;49.456;10.644;2022-10-16T06:47:40;14.60;99.90
30069;DHT22;16894;49.456;10.644;2022-10-16T06:50:06;14.70;99.90
30069;DHT22;16894;49.456;10.644;2022-10-16T06:52:34;14.70;99.90
30069;DHT22;16894;49.456;10.644;2022-10-16T06:55:00;14.80;99.90
30069;DHT22;16894;49.456;10.644;2022-10-16T06:57:26;14.80;99.90
30069;DHT22;16894;49.456;10.644;2022-10-16T06:59:52;14.90;99.90
30069;DHT22;16894;49.456;10.644;2022-10-16T07:02:17;14.90;99.90
30069;DHT22;16894;49.456;10.644;2022-10-16T07:04:43;15.00;99.90
30069;DHT22;16894;49.456;10.644;2022-10-16T07:07:08;15.00;99.90
30069;DHT22;16894;49.456;10.644;2022-10-16T07:09:34;15.00;99.90
30069;DHT22;16894;49.456;10.644;2022-10-16T07:12:00;15.00;99.90
30069;DHT22;16894;49.456;10.644;2022-10-16T07:14:25;15.10;99.90
30069;DHT22;16894;49.456;10.644;2022-10-16T07:16:51;15.10;99.90
30069;DHT22;16894;49.456;10.644;2022-10-16T07:19:17;15.10;99.90
30069;DHT22;16894;49.456;10.644;2022-10-16T07:21:43;15.20;99.90
30069;DHT22;16894;49.456;10.644;2022-10-16T07:24:13;15.20;99.90
30069;DHT22;16894;49.456;10.644;2022-10-16T07:26:40;15.10;99.90
30069;DHT22;16894;49.456;10.644;2022-10-16T07:29:21;15.10;99.90
30069;DHT22;16894;49.456;10.644;2022-10-16T07:31:48;15.00;99.90
30069;DHT22;16894;49.456;10.644;2022-10-16T07:34:16;15.00;99.90
30069;DHT22;16894;49.456;10.644;2022-10-16T07:36:42;15.10;99.90
30069;DHT22;16894;49.456;10.644;2022-10-16T07:39:08;15.20;99.90
30069;DHT22;16894;49.456;10.644;2022-10-16T07:41:34;15.40;99.90
30069;DHT22;16894;49.456;10.644;2022-10-16T07:44:02;15.40;99.90
30069;DHT22;16894;49.456;10.644;2022-10-16T07:46:28;15.50;99.90
30069;DHT22;16894;49.456;10.644;2022-10-16T07:48:54;15.50;99.90
30069;DHT22;16894;49.456;10.644;2022-10-16T07:51:21;15.50;99.90
30069;DHT22;16894;49.456;10.644;2022-10-16T07:53:48;15.50;99.90
30069;DHT22;16894;49.456;10.644;2022-10-16T07:56:14;15.60;99.90
30069;DHT22;16894;49.456;10.644;2022-10-16T07:58:41;15.60;99.90
30069;DHT22;16894;49.456;10.644;2022-10-16T08:01:08;15.70;99.90
30069;DHT22;16894;49.456;10.644;2022-10-16T08:03:34;15.70;99.90
30069;DHT22;16894;49.456;10.644;2022-10-16T08:06:01;15.70;99.90
30069;DHT22;16894;49.456;10.644;2022-10-16T08:08:27;15.80;99.90
30069;DHT22;16894;49.456;10.644;2022-10-16T08:10:52;15.80;99.90
30069;DHT22;16894;49.456;10.644;2022-10-16T08:13:18;15.90;99.90
30069;DHT22;16894;49.456;10.644;2022-10-16T08:15:44;16.00;99.90
30069;DHT22;16894;49.456;10.644;2022-10-16T08:18:10;16.10;99.90
30069;DHT22;16894;49.456;10.644;2022-10-16T08:20:36;16.20;99.90
30069;DHT22;16894;49.456;10.644;2022-10-16T08:23:02;16.30;99.90
30069;DHT22;16894;49.456;10.644;2022-10-16T08:25:28;16.50;99.90
30069;DHT22;16894;49.456;10.644;2022-10-16T08:27:54;16.50;99.90
30069;DHT22;16894;49.456;10.644;2022-10-16T08:30:20;16.50;99.90
30069;DHT22;16894;49.456;10.644;2022-10-16T08:32:46;16.60;99.90
30069;DHT22;16894;49.456;10.644;2022-10-16T08:35:13;16.50;99.90
30069;DHT22;16894;49.456;10.644;2022-10-16T08:37:39;16.50;99.90
30069;DHT22;16894;49.456;10.644;2022-10-16T08:40:06;16.50;99.90
30069;DHT22;16894;49.456;10.644;2022-10-16T08:50:47;16.60;99.90
30069;DHT22;16894;49.456;10.644;2022-10-16T08:53:38;16.60;99.90
30069;DHT22;16894;49.456;10.644;2022-10-16T08:56:01;16.60;99.90
30069;DHT22;16894;49.456;10.644;2022-10-16T08:58:29;16.70;99.90
30069;DHT22;16894;49.456;10.644;2022-10-16T09:01:04;16.80;99.90
30069;DHT22;16894;49.456;10.644;2022-10-16T09:06:13;16.90;99.90
30069;DHT22;16894;49.456;10.644;2022-10-16T09:09:15;16.90;99.90
30069;DHT22;16894;49.456;10.644;2022-10-16T09:11:59;16.90;99.90
30069;DHT22;16894;49.456;10.644;2022-10-16T09:22:45;16.90;99.90
30069;DHT22;16894;49.456;10.644;2022-10-16T09:25:18;17.00;99.90
30069;DHT22;16894;49.456;10.644;2022-10-16T09:27:47;17.10;99.90
30069;DHT22;16894;49.456;10.644;2022-10-16T09:30:19;17.10;99.90
30069;DHT22;16894;49.456;10.644;2022-10-16T09:32:47;17.10;99.90
30069;DHT22;16894;49.456;10.644;2022-10-16T09:35:18;17.20;99.90
30069;DHT22;16894;49.456;10.644;2022-10-16T09:37:46;17.30;99.90
30069;DHT22;16894;49.456;10.644;2022-10-16T09:40:45;17.30;99.90
30069;DHT22;16894;49.456;10.644;2022-10-16T09:43:34;17.30;99.90
30069;DHT22;16894;49.456;10.644;2022-10-16T09:46:03;17.40;99.90
30069;DHT22;16894;49.456;10.644;2022-10-16T09:48:49;17.50;99.90
30069;DHT22;16894;49.456;10.644;2022-10-16T09:51:20;17.70;99.90
30069;DHT22;16894;49.456;10.644;2022-10-16T09:53:47;17.90;99.90
30069;DHT22;16894;49.456;10.644;2022-10-16T09:58:52;18.20;99.90
30069;DHT22;16894;49.456;10.644;2022-10-16T10:01:19;18.30;99.90
30069;DHT22;16894;49.456;10.644;2022-10-16T10:03:45;18.50;99.90
30069;DHT22;16894;49.456;10.644;2022-10-16T10:06:25;18.60;99.90
30069;DHT22;16894;49.456;10.644;2022-10-16T10:08:58;18.70;99.90
30069;DHT22;16894;49.456;10.644;2022-10-16T10:11:42;18.60;99.90
30069;DHT22;16894;49.456;10.644;2022-10-16T10:14:17;18.70;99.90
30069;DHT22;16894;49.456;10.644;2022-10-16T10:16:43;18.70;99.90
30069;DHT22;16894;49.456;10.644;2022-10-16T10:19:17;18.60;99.90
30069;DHT22;16894;49.456;10.644;2022-10-16T10:21:44;18.40;99.90
30069;DHT22;16894;49.456;10.644;2022-10-16T10:24:17;18.40;99.90
30069;DHT22;16894;49.456;10.644;2022-10-16T10:27:05;18.40;99.90
30069;DHT22;16894;49.456;10.644;2022-10-16T10:32:40;18.50;99.90
30069;DHT22;16894;49.456;10.644;2022-10-16T10:35:17;18.60;99.90
30069;DHT22;16894;49.456;10.644;2022-10-16T10:43:33;19.30;99.90
30069;DHT22;16894;49.456;10.644;2022-10-16T10:46:05;19.30;99.90
30069;DHT22;16894;49.456;10.644;2022-10-16T10:51:15;19.40;99.90
30069;DHT22;16894;49.456;10.644;2022-10-16T11:04:29;20.00;99.90
30069;DHT22;16894;49.456;10.644;2022-10-16T11:07:02;20.40;99.90
30069;DHT22;16894;49.456;10.644;2022-10-16T11:09:37;20.40;99.90
30069;DHT22;16894;49.456;10.644;2022-10-16T11:12:26;20.40;99.90
30069;DHT22;16894;49.456;10.644;2022-10-16T11:17:51;20.40;99.90
30069;DHT22;16894;49.456;10.644;2022-10-16T11:20:26;20.50;99.90
30069;DHT22;16894;49.456;10.644;2022-10-16T11:23:16;20.90;99.90
30069;DHT22;16894;49.456;10.644;2022-10-16T11:25:45;21.20;99.90
30069;DHT22;16894;49.456;10.644;2022-10-16T11:34:04;22.20;99.90
30069;DHT22;16894;49.456;10.644;2022-10-16T11:37:11;21.70;99.90
30069;DHT22;16894;49.456;10.644;2022-10-16T11:39:38;21.50;99.90
30069;DHT22;16894;49.456;10.644;2022-10-16T11:42:21;21.60;99.90
30069;DHT22;16894;49.456;10.644;2022-10-16T11:44:55;21.50;99.90
30069;DHT22;16894;49.456;10.644;2022-10-16T11:47:48;21.70;99.90
30069;DHT22;16894;49.456;10.644;2022-10-16T11:53:38;21.70;99.90
30069;DHT22;16894;49.456;10.644;2022-10-16T11:56:05;21.60;99.90
30069;DHT22;16894;49.456;10.644;2022-10-16T11:58:59;21.60;99.90
30069;DHT22;16894;49.456;10.644;2022-10-16T12:01:40;21.60;99.90
30069;DHT22;16894;49.456;10.644;2022-10-16T12:04:21;21.60;99.90
30069;DHT22;16894;49.456;10.644;2022-10-16T12:06:54;21.80;99.90
30069;DHT22;16894;49.456;10.644;2022-10-16T12:09:27;22.10;99.90
30069;DHT22;16894;49.456;10.644;2022-10-16T12:11:54;22.10;99.90
30069;DHT22;16894;49.456;10.644;2022-10-16T12:14:33;22.20;99.90
30069;DHT22;16894;49.456;10.644;2022-10-16T12:20:12;22.70;99.90
30069;DHT22;16894;49.456;10.644;2022-10-16T12:22:47;22.70;99.90
30069;DHT22;16894;49.456;10.644;2022-10-16T12:27:57;22.60;99.90
30069;DHT22;16894;49.456;10.644;2022-10-16T12:30:25;22.80;99.90
30069;DHT22;16894;49.456;10.644;2022-10-16T12:33:00;22.90;99.90
30069;DHT22;16894;49.456;10.644;2022-10-16T12:35:30;22.90;99.90
30069;DHT22;16894;49.456;10.644;2022-10-16T12:40:44;23.10;99.90
30069;DHT22;16894;49.456;10.644;2022-10-16T12:43:35;23.20;99.90
30069;DHT22;16894;49.456;10.644;2022-10-16T12:46:05;23.70;99.90
30069;DHT22;16894;49.456;10.644;2022-10-16T12:48:45;24.00;99.90
30069;DHT22;16894;49.456;10.644;2022-10-16T12:51:34;23.90;99.90
30069;DHT22;16894;49.456;10.644;2022-10-16T12:54:17;24.40;99.90
30069;DHT22;16894;49.456;10.644;2022-10-16T12:57:12;24.60;99.90
30069;DHT22;16894;49.456;10.644;2022-10-16T12:59:56;25.10;99.90
30069;DHT22;16894;49.456;10.644;2022-10-16T13:02:46;27.50;98.90
30069;DHT22;16894;49.456;10.644;2022-10-16T13:07:59;29.60;92.30
30069;DHT22;16894;49.456;10.644;2022-10-16T13:18:55;30.30;86.30
30069;DHT22;16894;49.456;10.644;2022-10-16T13:27:15;29.10;89.30
30069;DHT22;16894;49.456;10.644;2022-10-16T13:29:43;28.80;89.10
30069;DHT22;16894;49.456;10.644;2022-10-16T13:32:11;29.30;89.00
30069;DHT22;16894;49.456;10.644;2022-10-16T13:34:47;30.30;87.80
30069;DHT22;16894;49.456;10.644;2022-10-16T13:37:19;30.40;84.90
30069;DHT22;16894;49.456;10.644;2022-10-16T13:39:45;30.60;83.90
30069;DHT22;16894;49.456;10.644;2022-10-16T13:42:26;30.30;83.80
30069;DHT22;16894;49.456;10.644;2022-10-16T13:44:55;30.10;83.60
30069;DHT22;16894;49.456;10.644;2022-10-16T13:47:25;30.70;83.30
30069;DHT22;16894;49.456;10.644;2022-10-16T13:50:03;30.70;82.60
30069;DHT22;16894;49.456;10.644;2022-10-16T13:52:30;31.60;81.90
30069;DHT22;16894;49.456;10.644;2022-10-16T13:54:55;32.70;77.50
30069;DHT22;16894;49.456;10.644;2022-10-16T13:57:23;32.90;77.40
30069;DHT22;16894;49.456;10.644;2022-10-16T13:59:49;31.50;77.20
30069;DHT22;16894;49.456;10.644;2022-10-16T14:02:18;31.10;77.40
30069;DHT22;16894;49.456;10.644;2022-10-16T14:04:46;29.30;80.10
30069;DHT22;16894;49.456;10.644;2022-10-16T14:07:20;28.30;83.20
30069;DHT22;16894;49.456;10.644;2022-10-16T14:09:52;27.30;85.10
30069;DHT22;16894;49.456;10.644;2022-10-16T14:12:18;25.90;88.00
30069;DHT22;16894;49.456;10.644;2022-10-16T14:14:44;25.00;90.50
30069;DHT22;16894;49.456;10.644;2022-10-16T14:17:26;24.50;91.90
30069;DHT22;16894;49.456;10.644;2022-10-16T14:19:55;24.20;92.20
30069;DHT22;16894;49.456;10.644;2022-10-16T14:22:41;23.70;93.50
30069;DHT22;16894;49.456;10.644;2022-10-16T14:27:44;23.50;94.90
30069;DHT22;16894;49.456;10.644;2022-10-16T14:30:20;23.30;95.30
30069;DHT22;16894;49.456;10.644;2022-10-16T14:33:01;23.10;96.00
30069;DHT22;16894;49.456;10.644;2022-10-16T14:35:38;22.70;98.40
30069;DHT22;16894;49.456;10.644;2022-10-16T14:38:05;22.50;99.80
30069;DHT22;16894;49.456;10.644;2022-10-16T14:40:34;22.30;99.90
30069;DHT22;16894;49.456;10.644;2022-10-16T14:43:01;22.20;99.90
30069;DHT22;16894;49.456;10.644;2022-10-16T14:45:30;22.00;99.90
30069;DHT22;16894;49.456;10.644;2022-10-16T14:47:58;22.00;99.90
30069;DHT22;16894;49.456;10.644;2022-10-16T14:50:25;21.80;99.90
30069;DHT22;16894;49.456;10.644;2022-10-16T14:52:51;21.80;99.90
30069;DHT22;16894;49.456;10.644;2022-10-16T14:55:17;21.90;99.90
30069;DHT22;16894;49.456;10.644;2022-10-16T14:57:43;21.90;99.90
30069;DHT22;16894;49.456;10.644;2022-10-16T15:00:18;21.70;99.90
30069;DHT22;16894;49.456;10.644;2022-10-16T15:02:45;21.60;99.90
30069;DHT22;16894;49.456;10.644;2022-10-16T15:05:21;21.40;99.90
30069;DHT22;16894;49.456;10.644;2022-10-16T15:07:48;21.30;99.90
30069;DHT22;16894;49.456;10.644;2022-10-16T15:10:16;21.10;99.90
30069;DHT22;16894;49.456;10.644;2022-10-16T15:12:42;21.00;99.90
30069;DHT22;16894;49.456;10.644;2022-10-16T15:15:23;21.00;99.90
30069;DHT22;16894;49.456;10.644;2022-10-16T15:17:50;20.90;99.90
30069;DHT22;16894;49.456;10.644;2022-10-16T15:20:24;20.80;99.90
30069;DHT22;16894;49.456;10.644;2022-10-16T15:22:50;20.70;99.90
30069;DHT22;16894;49.456;10.644;2022-10-16T15:25:35;20.60;99.90
30069;DHT22;16894;49.456;10.644;2022-10-16T15:28:03;20.50;99.90
30069;DHT22;16894;49.456;10.644;2022-10-16T15:30:30;20.30;99.90
30069;DHT22;16894;49.456;10.644;2022-10-16T15:32:55;20.10;99.90
30069;DHT22;16894;49.456;10.644;2022-10-16T15:35:21;19.90;99.90
30069;DHT22;16894;49.456;10.644;2022-10-16T15:37:48;19.80;99.90
30069;DHT22;16894;49.456;10.644;2022-10-16T15:40:14;19.80;99.90
30069;DHT22;16894;49.456;10.644;2022-10-16T15:42:39;19.70;99.90
30069;DHT22;16894;49.456;10.644;2022-10-16T15:45:05;19.60;99.90
30069;DHT22;16894;49.456;10.644;2022-10-16T15:47:32;19.50;99.90
30069;DHT22;16894;49.456;10.644;2022-10-16T15:49:58;19.40;99.90
30069;DHT22;16894;49.456;10.644;2022-10-16T15:52:24;19.40;99.90
30069;DHT22;16894;49.456;10.644;2022-10-16T15:54:49;19.30;99.90
30069;DHT22;16894;49.456;10.644;2022-10-16T15:57:15;19.20;99.90
30069;DHT22;16894;49.456;10.644;2022-10-16T15:59:41;19.10;99.90
30069;DHT22;16894;49.456;10.644;2022-10-16T16:02:08;19.00;99.90
30069;DHT22;16894;49.456;10.644;2022-10-16T16:04:34;18.90;99.90
30069;DHT22;16894;49.456;10.644;2022-10-16T16:07:00;18.90;99.90
30069;DHT22;16894;49.456;10.644;2022-10-16T16:09:28;18.80;99.90
30069;DHT22;16894;49.456;10.644;2022-10-16T16:11:54;18.70;99.90
30069;DHT22;16894;49.456;10.644;2022-10-16T16:14:19;18.60;99.90
30069;DHT22;16894;49.456;10.644;2022-10-16T16:16:46;18.60;99.90
30069;DHT22;16894;49.456;10.644;2022-10-16T16:19:12;18.50;99.90
30069;DHT22;16894;49.456;10.644;2022-10-16T16:21:38;18.50;99.90
30069;DHT22;16894;49.456;10.644;2022-10-16T16:24:04;18.40;99.90
30069;DHT22;16894;49.456;10.644;2022-10-16T16:26:34;18.30;99.90
30069;DHT22;16894;49.456;10.644;2022-10-16T16:29:03;18.20;99.90
30069;DHT22;16894;49.456;10.644;2022-10-16T16:31:30;18.20;99.90
30069;DHT22;16894;49.456;10.644;2022-10-16T16:33:57;18.10;99.90
30069;DHT22;16894;49.456;10.644;2022-10-16T16:36:24;18.00;99.90
30069;DHT22;16894;49.456;10.644;2022-10-16T16:38:50;18.00;99.90
30069;DHT22;16894;49.456;10.644;2022-10-16T16:41:26;18.00;99.90
30069;DHT22;16894;49.456;10.644;2022-10-16T16:43:53;17.90;99.90
30069;DHT22;16894;49.456;10.644;2022-10-16T16:46:19;17.80;99.90
30069;DHT22;16894;49.456;10.644;2022-10-16T16:48:45;17.90;99.90
30069;DHT22;16894;49.456;10.644;2022-10-16T16:51:16;17.80;99.90
30069;DHT22;16894;49.456;10.644;2022-10-16T16:53:44;17.80;99.90
30069;DHT22;16894;49.456;10.644;2022-10-16T16:56:09;17.70;99.90
30069;DHT22;16894;49.456;10.644;2022-10-16T16:58:35;17.70;99.90
30069;DHT22;16894;49.456;10.644;2022-10-16T17:01:01;17.60;99.90
30069;DHT22;16894;49.456;10.644;2022-10-16T17:03:31;17.50;99.90
30069;DHT22;16894;49.456;10.644;2022-10-16T17:05:58;17.50;99.90